Oakland County International Airport
KPTK : rendu visible

Aérodrome :











RETROUVEZ-NOUS SUR...

 
LOGIN :

S'inscrire | Disclaimer

   EN    FR    IT 

 









Légende :    VFR   VFR Marginal   IFR   IFR Intensif   IFR Très Intensif
Visi : 
Plafond : 
>= 8 km
>= 3000ft
5 à 8 km
1000 à 3000 ft
1500m à 5 km
500 à 1000 ft
800 à 1500m
200 à 500 ft
< 800m
< 200 ft
Symboles :   Orages  Brouillard  Fortes neiges  Fortes précipitations  Vent > 20 kt






- Altitude de l'aérodrome : 980 ft


KPTK - Oakland County International

DERNIER METAR :
  • 290944Z 13007KT 1/4SM R09R/2000V2200FT FG VV001 08/08 A2952 RMK AO2 T00830078

METARs EXPIRÉS :
  • 290926Z 14004KT 1/2SM R09R/2400V3500FT FG VV002 08/08 A2954 RMK AO2 T00830078
  • 290910Z AUTO 13009KT 1 3/4SM R09R/4500VP6000FT BR OVC002 08/08 A2954 RMK AO2 T00780078
  • 290853Z AUTO VRB05G14KT 4SM BR OVC002 08/07 A2956 RMK AO2 RAB13E47 SLP012 P0004 60004 T00780072 56042
  • 290847Z AUTO 11008G14KT 3SM BR OVC002 08/07 A2955 RMK AO2 RAB13E47 P0004
  • 290828Z AUTO 13006KT 1SM R09R/2200V6000FT -RA BR VV002 08/07 A2956 RMK AO2 RAB13 P0001 T00780072
  • 290753Z AUTO 12008KT 1/4SM R09R/1600V1800FT FG VV002 08/07 A2958 RMK AO2 SLP021 T00780072
  • 290736Z AUTO 12008KT 1/4SM R09R/2000V2400FT FG VV002 08/07 A2959 RMK AO2 T00780072
  • 290713Z AUTO 12009KT 3/4SM R09R/2800V4000FT BR VV002 08/07 A2960 RMK AO2 PRESFR T00780067
  • 290657Z AUTO 11011KT 1 3/4SM BR OVC002 08/07 A2962 RMK AO2 PRESFR T00780067

TAF KPTK
Valide du 29 à 06h jusqu'au 30 à 06h UTC


290540Z 2906/3006 11012KT 4SM BR OVC004
TEMPO 2906/2909 2SM SHRA BR OVC003
FM291200 19010KT 5SM BR OVC005
FM291400 22016G26KT P6SM SCT025 BKN040
FM291700 24018G32KT P6SM -SHRA OVC028



MET'MAP, la Météo Aéronautique d'un coup d'oeil ! - Copyright ORBIFLY Décembre 2007 - Disclaimer

ORBIFLY MET'MAP TEAM :

Programmation & Développement : Alexandra Zaïnal
Sur une idée originale de : Baudouin d'Aumeries
Assistance à la programmation : Marc-Olivier Méhu
Soutien technique & logistique : Manuel Goepfert

Contact : metmap@orbifly.com




SOURCES & CREDITS :

   NOAA       Earth
Advisory